Terminal Aerodrome Forecast
Issued by NWS Lake Charles, LA

Home | Current Version | Previous Version | Text Only | Print | Product List | Glossary On
Versions: 1 2 3 4 5 6 7 8 9 10 11 12 13 14 15 16 17 18
000
FTUS44 KLCH 302320
TAFBPT
TAF
KBPT 302320Z 0100/0124 22012G20KT P6SM VCTS FEW020CB SCT035 OVC150
     FM010200 VRB04KT P6SM BKN250
     FM011000 VRB03KT P6SM SCT015
     FM011500 21007KT P6SM VCSH SCT025 PROB30 0118/0124 VRB15G25KT
      4SM TSRA BKN035CB=

USA.gov is the U.S. government's official web portal to all federal, state and local government web resources and services.